• Join FlightAware (Why Join?)
  • Login
  • US Flag 
06:31PM EDT


 

Airport Tracker/Info


-or-


 

Live Flight TrackerFlight Track Log ✈ N577XW ✈ 15-Jun-2013 ✈ KJKA - KTUL

Flight Track Log - Related Links

Times and Time Zones

All times are in EDT time to prevent confusion due to time zone crossing. See the N577XW flight status page for this flight to view local times or setup timezone preferences in your user account.

Time Position Orientation Groundspeed Altitude Reporting Facility
EDT Latitude Longitude Course Direction KTS MPH feet Rate Location/Type
04:58PM 30.3092 -87.5986 65° Northeast 198 228 4,500  Level Jacksonville Center
04:59PM 30.3853 -87.6522 329° Northwest 246 283 7,400 1,980 Climbing Houston Center
05:00PM 30.4414 -87.7189 314° West 278 320 9,400 1,860 Climbing Houston Center
05:01PM 30.5053 -87.7825 319° Northwest 295 339 11,300 2,040 Climbing Houston Center
05:02PM 30.5622 -87.8542 313° West 302 348 13,600 1,800 Climbing Houston Center
05:03PM 30.6203 -87.9278 313° West 306 352 15,100 1,620 Climbing Houston Center
05:04PM 30.6994 -88.0119 318° Northwest 318 366 17,000 1,500 Climbing Houston Center
05:05PM 30.7608 -88.0881 313° West 322 371 18,300 1,320 Climbing Houston Center
05:06PM 30.8253 -88.1628 315° West 325 374 19,800 1,320 Climbing Houston Center
05:07PM 30.8917 -88.2367 316° Northwest 327 376 21,100 1,260 Climbing Houston Center
05:08PM 30.9558 -88.3178 313° West 333 383 22,400 1,260 Climbing Houston Center
05:09PM 31.0250 -88.3947 316° Northwest 334 384 23,800 1,440 Climbing Houston Center
05:10PM 31.0997 -88.4808 315° West 338 389 25,400 1,320 Climbing Houston Center
05:11PM 31.1644 -88.5583 314° West 335 386 26,600 960 Climbing Houston Center
05:13PM 31.2247 -88.6283 315° West 338 389 27,500 1,200 Climbing Houston Center
05:14PM 31.3058 -88.7264 314° West 346 398 29,100 1,200 Climbing Houston Center
05:15PM 31.3733 -88.8053 315° West 343 395 30,000 960 Climbing Houston Center
05:16PM 31.4433 -88.8869 315° West 354 407 31,100 900 Climbing Houston Center
05:17PM 31.5133 -88.9711 314° West 360 414 31,900 960 Climbing Houston Center
05:17PM 31.5564 -89.0189 317° Northwest 359 413 32,700 1,080 Climbing Houston Center
05:18PM 31.6239 -89.1006 314° West 351 404 33,700 900 Climbing Houston Center
05:19PM 31.6933 -89.1836 315° West 356 410 34,600 900 Climbing Houston Center
05:20PM 31.7619 -89.2653 315° West 354 407 35,600 660 Climbing Houston Center
05:21PM 31.8442 -89.3617 315° West 351 404 36,000 180 Climbing Houston Center
05:22PM 31.9161 -89.4483 314° West 367 422 36,000  Level Houston Center
05:23PM 31.9758 -89.5197 315° West 362 417 36,000  Level Memphis Center
05:24PM 32.0497 -89.6097 314° West 374 430 36,000  Level Memphis Center
05:25PM 32.1275 -89.7022 315° West 384 442 36,000  Level Memphis Center
05:26PM 32.2008 -89.7928 314° West 384 442 36,000  Level Memphis Center
05:27PM 32.2764 -89.8831 315° West 384 442 36,000  Level Memphis Center
05:28PM 32.3478 -89.9761 312° West 384 442 36,000  Level Memphis Center
05:29PM 32.4231 -90.0669 314° West 384 442 36,000 180 Level Memphis Center
05:30PM 32.4964 -90.1553 315° West 384 442 36,400 480 Climbing Memphis Center
05:31PM 32.5653 -90.2439 313° West 378 435 37,000 660 Climbing Memphis Center
05:32PM 32.6303 -90.3375 310° West 368 423 37,800 480 Climbing Memphis Center
05:33PM 32.6969 -90.4289 311° West 363 418 38,000 60 Climbing Memphis Center
05:34PM 32.7678 -90.5228 312° West 369 425 38,000  Level Memphis Center
05:35PM 32.8367 -90.6194 310° West 375 432 38,000  Level Memphis Center
05:36PM 32.9094 -90.7161 312° West 386 444 38,000  Level Memphis Center
05:37PM 32.9800 -90.8131 311° West 386 444 38,000  Level Memphis Center
05:38PM 33.0528 -90.9125 311° West 386 444 38,000  Level Memphis Center
05:39PM 33.1253 -91.0122 311° West 386 444 38,000  Level Memphis Center
05:40PM 33.1958 -91.1094 311° West 386 444 38,000  Level Memphis Center
05:41PM 33.2681 -91.2094 311° West 391 450 38,000  Level Memphis Center
05:42PM 33.3383 -91.3094 310° West 391 450 38,000  Level Memphis Center
05:43PM 33.4086 -91.4075 311° West 391 450 38,000  Level Memphis Center
05:44PM 33.4808 -91.5103 310° West 396 456 38,000  Level Memphis Center
05:45PM 33.5528 -91.6086 311° West 396 456 38,000  Level Memphis Center
05:46PM 33.6250 -91.7094 311° West 401 461 38,000  Level Memphis Center
05:47PM 33.7050 -91.8131 313° West 406 467 38,000  Level Memphis Center
05:48PM 33.7750 -91.9117 311° West 406 467 38,000  Level Memphis Center
05:49PM 33.8467 -92.0153 310° West 411 473 38,000  Level Memphis Center
05:50PM 33.9225 -92.1219 311° West 411 473 38,000  Level Memphis Center
05:51PM 33.9897 -92.2211 309° West 406 467 38,000  Level Memphis Center
05:52PM 34.0633 -92.3231 311° West 406 467 38,000  Level Memphis Center
05:53PM 34.1328 -92.4275 309° West 406 467 38,000  Level Memphis Center
05:54PM 34.2039 -92.5269 311° West 401 461 38,000  Level Memphis Center
05:55PM 34.2753 -92.6319 309° West 401 461 38,000  Level Memphis Center
05:56PM 34.3464 -92.7344 310° West 401 461 38,000  Level Memphis Center
05:57PM 34.4194 -92.8397 310° West 401 461 38,000  Level Memphis Center
05:58PM 34.4903 -92.9425 310° West 401 461 38,000  Level Memphis Center
05:59PM 34.5592 -93.0428 310° West 401 461 38,000  Level Memphis Center
06:00PM 34.6300 -93.1461 310° West 401 461 38,000  Level Memphis Center
06:01PM 34.7006 -93.2469 310° West 396 456 38,000  Level Memphis Center
06:02PM 34.7692 -93.3528 308° West 396 456 38,000  Level Memphis Center
06:03PM 34.8397 -93.4542 310° West 396 456 38,000  Level Memphis Center
06:04PM 34.9081 -93.5553 310° West 401 461 38,000  Level Memphis Center
06:05PM 34.9572 -93.6711 297° West 396 456 38,000  Level Memphis Center
06:06PM 34.9956 -93.7919 291° West 389 448 38,000 -600 Level Memphis Center
06:07PM 35.0422 -93.9181 294° West 389 448 36,800 -1,500 Descending Memphis Center
06:08PM 35.0803 -94.0414 291° West 396 456 35,100 -1,740 Descending Memphis Center
06:09PM 35.1267 -94.1678 294° West 396 456 33,400 -1,740 Descending Memphis Center
06:10PM 35.1706 -94.2969 293° West 401 461 31,700 -1,740 Descending Memphis Center
06:11PM 35.2144 -94.4233 293° West 401 461 30,000 -1,740 Descending Memphis Center
06:13PM 35.3103 -94.7042 293° West 409 471 26,400 -1,740 Descending Fort Worth Center
06:14PM 35.3503 -94.8225 293° West 396 456 24,700 -1,740 Descending Fort Worth Center
06:15PM 35.3903 -94.9411 293° West 386 444 23,000 -1,560 Descending Fort Worth Center
06:16PM 35.4028 -94.9853 289° West 374 430 22,400 -1,560 Descending Kansas City Center
06:17PM 35.4386 -95.0969 292° West 364 419 20,700 -1,740 Descending Kansas City Center
06:18PM 35.4819 -95.2006 297° West 349 402 19,000 -1,680 Descending Kansas City Center
06:19PM 35.5278 -95.3028 299° West 344 396 17,300 -1,740 Descending Kansas City Center
06:20PM 35.5842 -95.3889 309° West 328 377 15,500 -1,680 Descending Kansas City Center
06:21PM 35.6503 -95.4600 319° Northwest 318 366 13,900 -1,560 Descending Kansas City Center
06:22PM 35.7214 -95.5139 328° Northwest 312 359 12,400 -1,680 Descending Kansas City Center
06:22PM 35.7669 -95.5250 349° North 302 348 11,600 -1,500 Descending Kansas City Center
06:23PM 35.8039 -95.5256 359° North 301 346 10,900 -1,680 Descending Kansas City Center
06:23PM 35.8506 -95.5214 North 301 346 10,000 -1,980 Descending Kansas City Center
06:24PM 35.9044 -95.5219 360° North 301 346 8,900 -1,680 Descending Kansas City Center
06:24PM 35.9206 -95.5300 338° Northwest 294 338 8,500 -2,040 Descending Kansas City Center
06:25PM 35.9806 -95.5622 337° Northwest 299 344 6,900 -1,620 Descending Kansas City Center
06:26PM 36.0508 -95.6033 335° Northwest 285 328 5,600 -960 Descending Kansas City Center
06:27PM 36.1178 -95.6381 337° Northwest 269 310 5,000 -840 Descending Kansas City Center
06:28PM 36.1817 -95.6694 338° Northwest 250 288 4,000 -1,140 Descending Kansas City Center
06:29PM 36.2397 -95.7258 322° Northwest 265 305 2,800 -900 Descending Kansas City Center
06:30PM 36.2761 -95.7997 301° West 259 298 2,300 -720 Descending Kansas City Center
06:31PM 36.2556 -95.8714 250° West 235 270 1,400 -720 Descending Kansas City Center
06:32PM 36.2208 -95.9000 214° Southwest 180 207 900 -300 Descending Kansas City Center
06:33PM 36.1914 -95.8897 164° South 166 191 800 -120 Descending Kansas City Center